Trine Charlotte — LMRY — position and weather

sailwx.info

Track history (hours):
 
Tides and Currents Weather Stations Pressure Air Temp Water Temp Dewpoint Dewpoint Depression Visibility Wind Speed Wind Dir Waves Ship Positions

Trine Charlotte

Last reported at 2014-Oct-31 04:33 UTC. Time now 2014-Oct-31 12:20 UTC.
Position N 69°42' E 019°02'.

Length 66 m; draft 4.6 m.

Type: Wing in ground effect craft. MMSI: 257233000.

Date/timePositionNaut miles runAvg speedWind from/ knotsBaromVisibWave heightAir tempDewpointWater temp
2014-Oct-31 04:33N 69°42' E 019°02'2 0.1
2014-Oct-30 01:33N 69°41' E 019°01'1 1.5
2014-Oct-30 00:33N 69°40' E 018°58'0 0.0
2014-Oct-29 23:33N 69°40' E 018°58'0 0.0
2014-Oct-29 22:33N 69°40' E 018°58'0 0.0
2014-Oct-29 21:33N 69°40' E 018°58'0 0.0
2014-Oct-29 20:33N 69°40' E 018°58'3 0.3
2014-Oct-29 10:31N 69°42' E 019°01'0 0.0
2014-Oct-29 08:30N 69°42' E 019°01'0 0.0
2014-Oct-29 07:33N 69°42' E 019°01'1 0.2
2014-Oct-29 01:33N 69°41' E 019°01'157 4.9
2014-Oct-27 17:19N 67°38' E 014°34'14 0.9
2014-Oct-27 01:15N 67°35' E 015°09'145 3.8
2014-Oct-25 11:14N 69°35' E 018°51'5 7.1
2014-Oct-25 10:33N 69°39' E 018°58'0 0.3
2014-Oct-25 09:33N 69°39' E 018°59'  
2014-Oct-21 13:33N 69°38' E 018°56'4 4.4
2014-Oct-21 12:33N 69°42' E 019°01'0 0.0
2014-Oct-21 09:27N 69°42' E 019°01'0 0.0
2014-Oct-21 08:33N 69°42' E 019°01'0 0.0
2014-Oct-21 07:33N 69°42' E 019°01'0 0.0
2014-Oct-21 06:32N 69°42' E 019°01'0 0.0
2014-Oct-21 05:30N 69°42' E 019°01'  
Track history (hours):
 
Tides and Currents Weather Stations Pressure Air Temp Water Temp Dewpoint Dewpoint Depression Visibility Wind Speed Wind Dir Waves Ship Positions

Trine Charlotte

Last reported at 2014-Oct-31 04:33 UTC. Time now 2014-Oct-31 12:20 UTC.
Position N 69°42' E 019°02'.

Length 66 m; draft 4.6 m.

Type: Wing in ground effect craft. MMSI: 257233000.

Date/timePositionNaut miles runAvg speedWind from/ knotsBaromVisibWave heightAir tempDewpointWater temp
2014-Oct-31 04:33N 69°42' E 019°02'2 0.1
2014-Oct-30 01:33N 69°41' E 019°01'1 1.5
2014-Oct-30 00:33N 69°40' E 018°58'0 0.0
2014-Oct-29 23:33N 69°40' E 018°58'0 0.0
2014-Oct-29 22:33N 69°40' E 018°58'0 0.0
2014-Oct-29 21:33N 69°40' E 018°58'0 0.0
2014-Oct-29 20:33N 69°40' E 018°58'3 0.3
2014-Oct-29 10:31N 69°42' E 019°01'0 0.0
2014-Oct-29 08:30N 69°42' E 019°01'0 0.0
2014-Oct-29 07:33N 69°42' E 019°01'1 0.2
2014-Oct-29 01:33N 69°41' E 019°01'157 4.9
2014-Oct-27 17:19N 67°38' E 014°34'14 0.9
2014-Oct-27 01:15N 67°35' E 015°09'145 3.8
2014-Oct-25 11:14N 69°35' E 018°51'5 7.1
2014-Oct-25 10:33N 69°39' E 018°58'0 0.3
2014-Oct-25 09:33N 69°39' E 018°59'  
2014-Oct-21 13:33N 69°38' E 018°56'4 4.4
2014-Oct-21 12:33N 69°42' E 019°01'0 0.0
2014-Oct-21 09:27N 69°42' E 019°01'0 0.0
2014-Oct-21 08:33N 69°42' E 019°01'0 0.0
2014-Oct-21 07:33N 69°42' E 019°01'0 0.0
2014-Oct-21 06:32N 69°42' E 019°01'0 0.0
2014-Oct-21 05:30N 69°42' E 019°01'  

Dump ship's entire track history